This is the latest recevied weather packets stored in our database for station/object OH2CHY-10. If no packets are shown the sender has not sent any weather packets the latest 10 day(s).
| Time | Temp. | Humidity | Pressure | Rain* | Wind** | Luminosity | Snow |
|---|---|---|---|---|---|---|---|
| 1777702438 | 15.56° C | 47% | 1011.2 hPa | - | - | - | - |
| 1777701538 | 13.89° C | 49% | 1011.3 hPa | - | - | - | - |
| 1777700638 | 12.78° C | 51% | 1011.3 hPa | - | - | - | - |
| 1777699738 | 11.67° C | 49% | 1011.5 hPa | - | - | - | - |
| 1777698838 | 13.33° C | 45% | 1011.5 hPa | - | - | - | - |
| 1777697938 | 15.56° C | 38% | 1011.6 hPa | - | - | - | - |
| 1777697038 | 24.44° C | 28% | 1011.6 hPa | - | - | - | - |
| 1777696138 | 25° C | 29% | 1011.8 hPa | - | - | - | - |
| 1777695238 | 21.67° C | 34% | 1011.9 hPa | - | - | - | - |
| 1777694338 | 21.11° C | 34% | 1011.9 hPa | - | - | - | - |
| 1777693438 | 19.44° C | 40% | 1011.9 hPa | - | - | - | - |
| 1777692538 | 18.33° C | 40% | 1011.8 hPa | - | - | - | - |
| 1777691637 | 17.22° C | 45% | 1011.9 hPa | - | - | - | - |
| 1777690737 | 13.89° C | 55% | 1012 hPa | - | - | - | - |
| 1777689837 | 7.22° C | 66% | 1012.3 hPa | - | - | - | - |
| 1777688937 | 6.11° C | 64% | 1012.5 hPa | - | - | - | - |
| 1777688037 | 6.11° C | 64% | 1012.7 hPa | - | - | - | - |
| 1777687137 | 6.67° C | 64% | 1013 hPa | - | - | - | - |
| 1777686237 | 6.67° C | 62% | 1013.1 hPa | - | - | - | - |
| 1777685337 | 6.11° C | 65% | 1013 hPa | - | - | - | - |
| 1777684437 | 7.22° C | 61% | 1013.4 hPa | - | - | - | - |
| 1777683537 | 7.22° C | 60% | 1013.3 hPa | - | - | - | - |
| 1777682637 | 7.78° C | 58% | 1013.4 hPa | - | - | - | - |
| 1777681737 | 7.78° C | 58% | 1013.6 hPa | - | - | - | - |
| 1777680837 | 8.33° C | 57% | 1013.7 hPa | - | - | - | - |
* Rain since midnight (hover to see other rain measurements)
** Current wind speed in m/s (hover to see current wind gust speed)